createdAt,value
2018-07-15T00:01:49.956Z,19.94
2018-07-15T00:04:18.652Z,19.90
2018-07-15T00:06:47.366Z,19.89
2018-07-15T00:09:16.015Z,19.87
2018-07-15T00:11:45.041Z,19.89
2018-07-15T00:14:13.700Z,19.92
2018-07-15T00:16:42.403Z,19.95
2018-07-15T00:19:11.110Z,19.95
2018-07-15T00:21:39.814Z,19.92
2018-07-15T00:24:08.539Z,19.91
2018-07-15T00:26:37.232Z,19.86
2018-07-15T00:29:05.950Z,19.89
2018-07-15T00:31:34.660Z,19.91
2018-07-15T00:34:03.322Z,19.88
2018-07-15T00:36:32.023Z,19.87
2018-07-15T00:39:00.740Z,19.74
2018-07-15T00:41:29.426Z,19.71
2018-07-15T00:43:58.128Z,19.76
2018-07-15T00:46:26.814Z,19.81
2018-07-15T00:48:55.499Z,19.88
2018-07-15T00:51:24.190Z,19.90
2018-07-15T00:53:52.865Z,20.00
2018-07-15T00:56:22.069Z,19.93
2018-07-15T00:58:51.044Z,19.67
2018-07-15T01:01:19.965Z,19.44
2018-07-15T01:03:48.670Z,19.22
2018-07-15T01:06:17.372Z,18.87
2018-07-15T01:08:46.039Z,18.69
2018-07-15T01:11:14.731Z,18.68
2018-07-15T01:13:43.488Z,18.70
2018-07-15T01:16:12.335Z,18.66
2018-07-15T01:18:41.001Z,18.74
2018-07-15T01:21:09.663Z,18.70
2018-07-15T01:23:38.360Z,18.75
2018-07-15T01:26:07.034Z,18.79
2018-07-15T01:28:35.760Z,18.90
2018-07-15T01:31:04.501Z,18.89
2018-07-15T01:33:33.185Z,18.74
2018-07-15T01:36:01.850Z,18.64
2018-07-15T01:38:31.139Z,18.14
2018-07-15T01:41:00.092Z,17.62
2018-07-15T01:43:28.760Z,17.11
2018-07-15T01:45:57.787Z,16.82
2018-07-15T01:48:26.760Z,16.73
2018-07-15T01:50:55.787Z,16.67
2018-07-15T01:53:24.799Z,16.86
2018-07-15T01:55:53.495Z,17.00
2018-07-15T01:58:22.258Z,17.18
2018-07-15T02:00:50.931Z,17.19
2018-07-15T02:03:19.626Z,17.23
2018-07-15T02:05:49.240Z,17.12
2018-07-15T02:08:17.976Z,16.98
2018-07-15T02:10:46.635Z,16.84
2018-07-15T02:13:15.391Z,16.99
2018-07-15T02:15:44.055Z,17.17
2018-07-15T02:18:12.776Z,17.24
2018-07-15T02:20:41.478Z,17.20
2018-07-15T02:23:10.183Z,17.06
2018-07-15T02:25:38.875Z,16.86
2018-07-15T02:28:07.576Z,16.68
2018-07-15T02:30:36.263Z,16.49
2018-07-15T02:33:05.125Z,16.49
2018-07-15T02:35:33.887Z,16.45
2018-07-15T02:38:02.643Z,16.53
2018-07-15T02:40:31.323Z,16.72
2018-07-15T02:43:00.024Z,16.74
2018-07-15T02:45:28.678Z,16.83
2018-07-15T02:47:57.378Z,16.88
2018-07-15T02:50:26.039Z,17.02
2018-07-15T02:52:54.702Z,17.11
2018-07-15T02:55:23.439Z,17.20
2018-07-15T02:57:52.111Z,17.19
2018-07-15T03:00:20.799Z,17.04
2018-07-15T03:02:49.479Z,16.39
2018-07-15T03:05:18.195Z,16.64
2018-07-15T03:07:47.130Z,16.40
2018-07-15T03:10:15.943Z,16.29
2018-07-15T03:12:44.942Z,16.22
2018-07-15T03:15:13.674Z,16.22
2018-07-15T03:17:42.634Z,16.22
2018-07-15T03:20:11.305Z,16.26
2018-07-15T03:22:40.024Z,16.26
2018-07-15T03:25:08.864Z,16.30
2018-07-15T03:27:37.595Z,16.28
2018-07-15T03:30:07.616Z,16.53
2018-07-15T03:32:36.284Z,16.69
2018-07-15T03:35:05.168Z,16.65
2018-07-15T03:37:34.091Z,16.68
2018-07-15T03:40:02.801Z,16.79
2018-07-15T03:42:31.494Z,16.83
2018-07-15T03:45:00.219Z,16.90
2018-07-15T03:47:28.923Z,17.01
2018-07-15T03:49:57.572Z,17.09
2018-07-15T03:52:26.391Z,17.14
2018-07-15T03:54:55.158Z,16.96
2018-07-15T03:57:23.947Z,16.83
2018-07-15T03:59:52.699Z,17.07
2018-07-15T04:02:21.404Z,17.24
2018-07-15T04:04:50.386Z,17.25
2018-07-15T04:07:19.062Z,17.25
2018-07-15T04:09:47.758Z,17.40
2018-07-15T04:12:16.390Z,17.44
2018-07-15T04:14:45.267Z,17.32
2018-07-15T04:17:13.952Z,17.35
2018-07-15T04:19:42.927Z,17.36
2018-07-15T04:22:11.646Z,17.31
2018-07-15T04:24:40.669Z,17.40
2018-07-15T04:27:09.317Z,17.46
2018-07-15T04:29:37.951Z,17.50
2018-07-15T04:32:06.647Z,17.64
2018-07-15T04:34:35.320Z,17.68
2018-07-15T04:37:04.039Z,17.85
2018-07-15T04:39:32.688Z,18.09
2018-07-15T04:42:01.626Z,18.22
2018-07-15T04:44:30.376Z,18.11
2018-07-15T04:46:59.058Z,18.50
2018-07-15T04:49:27.700Z,18.71
2018-07-15T04:51:56.767Z,18.84
2018-07-15T04:54:25.431Z,18.98
2018-07-15T04:56:54.116Z,19.05
2018-07-15T04:59:22.831Z,19.20
2018-07-15T05:01:51.522Z,19.25
2018-07-15T05:04:20.190Z,19.36
2018-07-15T05:06:48.830Z,19.49
2018-07-15T05:09:17.870Z,19.62
2018-07-15T05:11:46.892Z,19.85
2018-07-15T05:14:15.553Z,20.14
2018-07-15T05:16:44.296Z,20.53
2018-07-15T05:19:13.619Z,20.86
2018-07-15T05:21:42.327Z,21.30
2018-07-15T05:24:11.091Z,21.74
2018-07-15T05:26:41.070Z,22.01
2018-07-15T05:29:09.776Z,22.30
2018-07-15T05:31:38.808Z,22.58
2018-07-15T05:34:07.586Z,22.85
2018-07-15T05:36:36.683Z,23.20
2018-07-15T05:39:06.110Z,23.93
2018-07-15T05:41:35.137Z,24.42
2018-07-15T05:44:04.344Z,25.08
2018-07-15T05:46:33.585Z,25.64
2018-07-15T05:49:02.324Z,25.85
2018-07-15T05:51:31.262Z,26.09
2018-07-15T05:53:59.958Z,26.34
2018-07-15T05:56:28.700Z,26.56
2018-07-15T05:58:57.387Z,26.64
2018-07-15T06:01:26.190Z,26.83
2018-07-15T06:03:55.219Z,26.90
2018-07-15T06:06:24.211Z,26.98
2018-07-15T06:08:53.590Z,27.26
2018-07-15T06:11:23.315Z,27.75
2018-07-15T06:13:52.557Z,28.03
2018-07-15T06:16:21.607Z,28.86
2018-07-15T06:18:50.579Z,28.97
2018-07-15T06:21:19.551Z,28.73
2018-07-15T06:23:49.535Z,28.59
2018-07-15T06:26:19.106Z,28.91
2018-07-15T06:28:47.730Z,28.76
2018-07-15T06:31:17.261Z,28.40
2018-07-15T06:33:46.023Z,28.24
2018-07-15T06:36:14.667Z,27.94
2018-07-15T06:38:43.400Z,27.79
2018-07-15T06:41:12.799Z,27.78
2018-07-15T06:43:42.033Z,28.41
2018-07-15T06:46:11.066Z,28.19
2018-07-15T06:48:40.163Z,28.10
2018-07-15T06:51:09.155Z,28.05
2018-07-15T06:53:38.553Z,28.00
2018-07-15T06:56:07.406Z,27.71
2018-07-15T06:58:36.091Z,28.34
2018-07-15T07:01:05.129Z,28.59
2018-07-15T07:03:34.149Z,28.61
2018-07-15T07:06:02.900Z,29.09
2018-07-15T07:08:31.684Z,29.19
2018-07-15T07:11:00.746Z,29.80
2018-07-15T07:13:30.148Z,29.93
2018-07-15T07:15:59.152Z,29.50
2018-07-15T07:18:29.332Z,29.69
2018-07-15T07:20:58.104Z,29.57
2018-07-15T07:23:27.067Z,28.84
2018-07-15T07:25:56.682Z,28.79
2018-07-15T07:28:25.501Z,29.06
2018-07-15T07:30:54.233Z,29.55
2018-07-15T07:33:23.080Z,29.63
2018-07-15T07:35:51.997Z,30.26
2018-07-15T07:38:21.676Z,30.33
2018-07-15T07:40:50.325Z,30.42
2018-07-15T07:43:19.305Z,30.13
2018-07-15T07:45:48.291Z,29.85
2018-07-15T07:48:16.985Z,29.21
2018-07-15T07:50:45.908Z,29.85
2018-07-15T07:53:14.651Z,30.20
2018-07-15T07:55:43.584Z,30.47
2018-07-15T07:58:12.640Z,29.85
2018-07-15T08:00:42.220Z,30.46
2018-07-15T08:03:12.463Z,30.97
2018-07-15T08:05:41.674Z,30.97
2018-07-15T08:08:10.668Z,31.16
2018-07-15T08:10:39.594Z,30.67
2018-07-15T08:13:08.606Z,30.64
2018-07-15T08:15:37.259Z,31.20
2018-07-15T08:18:06.432Z,31.29
2018-07-15T08:20:35.359Z,31.26
2018-07-15T08:23:04.995Z,30.97
2018-07-15T08:25:33.871Z,31.73
2018-07-15T08:28:02.966Z,31.91
2018-07-15T08:30:43.417Z,32.06
2018-07-15T08:33:12.740Z,32.21
2018-07-15T08:35:41.830Z,31.87
2018-07-15T08:38:11.063Z,31.85
2018-07-15T08:40:40.196Z,32.10
2018-07-15T08:43:08.810Z,32.35
2018-07-15T08:45:37.903Z,31.46
2018-07-15T08:48:06.572Z,30.37
2018-07-15T08:50:35.299Z,31.09
2018-07-15T08:53:04.039Z,30.40
2018-07-15T08:55:32.807Z,30.15
2018-07-15T08:58:01.526Z,30.77
2018-07-15T09:00:30.191Z,31.79
2018-07-15T09:02:58.854Z,31.60
2018-07-15T09:05:27.539Z,31.64
2018-07-15T09:07:57.514Z,30.41
2018-07-15T09:10:26.340Z,30.61
2018-07-15T09:12:55.032Z,31.40
2018-07-15T09:15:23.725Z,31.43
2018-07-15T09:17:52.491Z,30.16
2018-07-15T09:20:21.227Z,30.57
2018-07-15T09:22:49.917Z,31.31
2018-07-15T09:25:18.899Z,32.25
2018-07-15T09:27:47.827Z,32.21
2018-07-15T09:30:16.883Z,31.01
2018-07-15T09:32:45.639Z,30.78
2018-07-15T09:35:14.354Z,31.41
2018-07-15T09:37:43.080Z,31.96
2018-07-15T09:40:11.823Z,31.98
2018-07-15T09:42:40.605Z,31.28
2018-07-15T09:45:09.329Z,31.22
2018-07-15T09:47:38.033Z,31.29
2018-07-15T09:50:06.765Z,31.45
2018-07-15T09:52:35.480Z,32.21
2018-07-15T09:55:04.213Z,32.40
2018-07-15T09:57:32.917Z,31.72
2018-07-15T10:00:01.582Z,31.92
2018-07-15T10:02:30.250Z,32.87
2018-07-15T10:04:59.595Z,33.19
2018-07-15T10:07:28.415Z,32.53
2018-07-15T10:09:57.329Z,31.60
2018-07-15T10:12:25.958Z,31.13
2018-07-15T10:14:54.791Z,30.56
2018-07-15T10:17:23.458Z,31.69
2018-07-15T10:19:52.106Z,31.24
2018-07-15T10:22:20.834Z,31.35
2018-07-15T10:24:50.164Z,31.85
2018-07-15T10:27:18.862Z,32.33
2018-07-15T10:29:47.516Z,32.45
2018-07-15T10:32:16.164Z,30.60
2018-07-15T10:34:44.891Z,29.54
2018-07-15T10:37:13.722Z,28.88
2018-07-15T10:39:42.395Z,29.57
2018-07-15T10:42:11.148Z,30.30
2018-07-15T10:44:39.865Z,31.13
2018-07-15T10:47:08.850Z,30.18
2018-07-15T10:49:37.471Z,29.20
2018-07-15T10:52:06.501Z,30.50
2018-07-15T10:54:35.578Z,31.44
2018-07-15T10:57:04.288Z,31.03
2018-07-15T10:59:33.036Z,31.67
2018-07-15T11:02:01.683Z,32.23
2018-07-15T11:04:30.387Z,30.35
2018-07-15T11:06:59.911Z,30.34
2018-07-15T11:09:28.576Z,31.94
2018-07-15T11:11:57.255Z,32.76
2018-07-15T11:14:25.935Z,33.35
2018-07-15T11:16:54.657Z,33.94
2018-07-15T11:19:24.281Z,33.93
2018-07-15T11:21:53.227Z,33.78
2018-07-15T11:24:22.064Z,32.85
2018-07-15T11:26:50.975Z,31.65
2018-07-15T11:29:20.564Z,32.34
2018-07-15T11:31:49.595Z,32.25
2018-07-15T11:34:18.331Z,32.71
2018-07-15T11:36:48.091Z,31.84
2018-07-15T11:39:16.793Z,31.47
2018-07-15T11:41:45.522Z,30.84
2018-07-15T11:44:14.190Z,32.29
2018-07-15T11:46:42.828Z,31.52
2018-07-15T11:49:11.509Z,31.11
2018-07-15T11:51:40.233Z,30.94
2018-07-15T11:54:31.661Z,31.95
2018-07-15T11:57:00.857Z,32.41
2018-07-15T11:59:29.546Z,31.80
2018-07-15T12:01:58.289Z,32.07
2018-07-15T12:04:27.016Z,31.44
2018-07-15T12:06:58.255Z,31.82
2018-07-15T12:09:26.903Z,30.98
2018-07-15T12:11:55.590Z,30.00
2018-07-15T12:14:24.244Z,30.87
2018-07-15T12:16:52.848Z,30.75
2018-07-15T12:19:21.606Z,30.88
2018-07-15T12:21:50.227Z,31.43
2018-07-15T12:24:19.012Z,30.53
2018-07-15T12:26:47.663Z,31.05
2018-07-15T12:29:16.305Z,30.75
2018-07-15T12:31:45.466Z,30.23
2018-07-15T12:34:14.106Z,30.09
2018-07-15T12:36:42.783Z,30.07
2018-07-15T12:39:11.452Z,29.85
2018-07-15T12:41:40.144Z,29.37
2018-07-15T12:44:08.825Z,29.30
2018-07-15T12:49:59.048Z,28.94
2018-07-15T12:52:44.382Z,28.74
2018-07-15T12:55:13.823Z,28.52
2018-07-15T12:57:42.562Z,28.37
2018-07-15T13:00:11.377Z,28.66
2018-07-15T13:02:57.531Z,28.82
2018-07-15T13:05:27.011Z,28.91
2018-07-15T13:07:55.697Z,29.08
2018-07-15T13:10:24.385Z,29.47
2018-07-15T13:12:53.100Z,29.71
2018-07-15T13:15:21.783Z,30.25
2018-07-15T13:17:50.543Z,29.96
2018-07-15T13:20:19.288Z,30.15
2018-07-15T13:22:47.987Z,29.63
2018-07-15T13:25:16.714Z,29.11
2018-07-15T13:27:45.388Z,28.66
2018-07-15T13:30:14.170Z,28.45
2018-07-15T13:32:42.933Z,28.31
2018-07-15T13:35:11.595Z,28.16
2018-07-15T13:37:40.347Z,28.02
2018-07-15T13:40:09.034Z,28.09
2018-07-15T13:42:37.789Z,27.93
2018-07-15T13:45:06.484Z,27.50
2018-07-15T13:47:35.184Z,26.82
2018-07-15T13:50:03.901Z,26.39
2018-07-15T13:52:33.231Z,26.24
2018-07-15T13:55:02.089Z,26.00
2018-07-15T13:57:30.832Z,25.78
2018-07-15T13:59:59.518Z,25.98
2018-07-15T14:02:28.219Z,26.07
2018-07-15T14:04:56.891Z,25.93
2018-07-15T14:07:25.576Z,26.15
2018-07-15T14:09:54.371Z,26.27
2018-07-15T14:12:23.236Z,26.34
2018-07-15T14:14:51.948Z,26.44
2018-07-15T14:17:20.646Z,26.36
2018-07-15T14:19:49.724Z,26.27
2018-07-15T14:22:18.576Z,26.17
2018-07-15T14:24:47.232Z,26.22
2018-07-15T14:27:15.912Z,26.44
2018-07-15T14:29:44.662Z,26.41
2018-07-15T14:32:13.386Z,26.46
2018-07-15T14:34:42.231Z,26.49
2018-07-15T14:37:10.924Z,26.63
2018-07-15T14:39:41.570Z,26.77
2018-07-15T14:42:10.318Z,26.74
2018-07-15T14:44:39.798Z,26.81
2018-07-15T14:47:08.468Z,26.94
2018-07-15T14:49:37.312Z,27.07
2018-07-15T14:52:06.044Z,26.97
2018-07-15T14:54:34.786Z,27.02
2018-07-15T14:57:03.481Z,27.17
2018-07-15T14:59:32.137Z,23.55
2018-07-15T15:02:00.848Z,26.98
2018-07-15T15:04:29.548Z,26.85
2018-07-15T15:06:58.224Z,26.72
2018-07-15T15:09:26.931Z,26.95
2018-07-15T15:11:55.626Z,27.00
2018-07-15T15:14:24.378Z,27.07
2018-07-15T15:16:53.028Z,27.10
2018-07-15T15:19:21.774Z,27.07
2018-07-15T15:21:50.447Z,26.95
2018-07-15T15:24:19.160Z,26.57
2018-07-15T15:26:47.820Z,26.15
2018-07-15T15:29:16.554Z,25.92
2018-07-15T15:31:45.221Z,25.98
2018-07-15T15:34:13.884Z,26.03
2018-07-15T15:36:42.863Z,25.90
2018-07-15T15:39:11.556Z,25.84
2018-07-15T15:41:40.542Z,25.90
2018-07-15T15:44:09.231Z,25.94
2018-07-15T15:46:37.921Z,25.92
2018-07-15T15:49:06.579Z,25.89
2018-07-15T15:51:35.271Z,25.85
2018-07-15T15:54:03.971Z,25.86
2018-07-15T15:56:32.615Z,25.89
2018-07-15T15:59:01.302Z,25.64
2018-07-15T16:01:29.985Z,25.52
2018-07-15T16:03:58.605Z,25.49
2018-07-15T16:06:27.232Z,25.47
2018-07-15T16:08:55.889Z,25.35
2018-07-15T16:11:24.553Z,25.36
2018-07-15T16:13:53.146Z,25.40
2018-07-15T16:16:21.843Z,25.43
2018-07-15T16:18:50.510Z,25.47
2018-07-15T16:21:19.251Z,25.48
2018-07-15T16:23:48.122Z,25.56
2018-07-15T16:26:16.776Z,25.53
2018-07-15T16:28:45.457Z,25.57
2018-07-15T16:31:14.116Z,25.57
2018-07-15T16:33:42.804Z,25.58
2018-07-15T16:36:11.460Z,25.42
2018-07-15T16:38:40.116Z,25.26
2018-07-15T16:41:08.790Z,25.18
2018-07-15T16:43:37.414Z,25.17
2018-07-15T16:46:06.138Z,25.13
2018-07-15T16:48:34.852Z,25.15
2018-07-15T16:51:03.554Z,25.19
2018-07-15T16:53:32.191Z,25.22
2018-07-15T16:56:00.834Z,25.18
2018-07-15T16:58:29.566Z,25.26
2018-07-15T17:00:58.178Z,25.30
2018-07-15T17:03:26.884Z,25.36
2018-07-15T17:05:55.589Z,25.28
2018-07-15T17:08:24.319Z,25.09
2018-07-15T17:10:53.040Z,24.91
2018-07-15T17:13:21.774Z,24.79
2018-07-15T17:15:50.554Z,24.75
2018-07-15T17:18:19.274Z,24.66
2018-07-15T17:20:47.950Z,24.64
2018-07-15T17:23:16.608Z,24.62
2018-07-15T17:25:46.235Z,24.63
2018-07-15T17:28:17.220Z,24.60
2018-07-15T17:30:46.001Z,24.69
2018-07-15T17:33:14.758Z,24.63
2018-07-15T17:35:43.572Z,24.56
2018-07-15T17:38:12.254Z,24.32
2018-07-15T17:40:41.081Z,24.11
2018-07-15T17:43:09.708Z,24.03
2018-07-15T17:45:38.450Z,23.92
2018-07-15T17:48:07.223Z,23.79
2018-07-15T17:50:35.918Z,23.68
2018-07-15T17:53:04.600Z,23.61
2018-07-15T17:55:33.284Z,23.55
2018-07-15T17:58:01.994Z,23.47
2018-07-15T18:00:30.759Z,23.41
2018-07-15T18:02:59.442Z,23.32
2018-07-15T18:05:28.239Z,23.21
2018-07-15T18:07:56.940Z,23.06
2018-07-15T18:10:25.656Z,22.94
2018-07-15T18:12:54.394Z,22.86
2018-07-15T18:15:23.344Z,22.74
2018-07-15T18:17:52.336Z,22.66
2018-07-15T18:20:21.044Z,22.68
2018-07-15T18:22:49.773Z,22.68
2018-07-15T18:25:18.461Z,22.70
2018-07-15T18:27:47.777Z,22.68
2018-07-15T18:30:16.489Z,22.65
2018-07-15T18:32:45.118Z,22.63
2018-07-15T18:35:13.824Z,22.59
2018-07-15T18:37:42.498Z,22.57
2018-07-15T18:40:11.157Z,22.55
2018-07-15T18:42:39.860Z,22.56
2018-07-15T18:45:08.802Z,21.21
2018-07-15T18:47:37.715Z,22.44
2018-07-15T18:50:06.658Z,22.39
2018-07-15T18:52:35.374Z,22.28
2018-07-15T18:55:04.090Z,22.22
2018-07-15T18:57:32.754Z,22.15
2018-07-15T19:00:01.385Z,22.06
2018-07-15T19:02:30.172Z,21.91
2018-07-15T19:04:58.904Z,21.78
2018-07-15T19:07:27.529Z,21.67
2018-07-15T19:09:56.223Z,21.58
2018-07-15T19:12:24.887Z,21.52
2018-07-15T19:14:53.660Z,21.40
2018-07-15T19:17:22.991Z,21.23
2018-07-15T19:19:51.625Z,21.20
2018-07-15T19:22:20.366Z,21.23
2018-07-15T19:24:50.171Z,21.29
2018-07-15T19:27:19.083Z,21.31
2018-07-15T19:29:47.791Z,21.23
2018-07-15T19:32:16.544Z,21.17
2018-07-15T19:34:45.198Z,21.23
2018-07-15T19:37:13.860Z,21.19
2018-07-15T19:39:42.672Z,21.20
2018-07-15T19:42:11.353Z,21.18
2018-07-15T19:44:40.034Z,21.13
2018-07-15T19:47:08.815Z,21.15
2018-07-15T19:49:37.542Z,21.16
2018-07-15T19:52:06.288Z,21.15
2018-07-15T19:54:34.936Z,21.14
2018-07-15T19:57:04.172Z,21.02
2018-07-15T19:59:32.822Z,21.00
2018-07-15T20:02:01.493Z,21.02
2018-07-15T20:04:30.153Z,21.01
2018-07-15T20:06:58.836Z,21.01
2018-07-15T20:09:28.440Z,21.01
2018-07-15T20:11:57.059Z,20.97
2018-07-15T20:14:25.692Z,20.99
2018-07-15T20:16:54.497Z,21.06
2018-07-15T20:19:23.140Z,21.10
2018-07-15T20:21:51.808Z,21.08
2018-07-15T20:24:20.470Z,21.12
2018-07-15T20:26:49.114Z,21.14
2018-07-15T20:29:17.894Z,21.11
2018-07-15T20:31:46.585Z,21.14
2018-07-15T20:34:15.294Z,21.28
2018-07-15T20:36:43.907Z,21.40
2018-07-15T20:39:12.550Z,21.45
2018-07-15T20:41:41.236Z,21.43
2018-07-15T20:44:09.930Z,21.44
2018-07-15T20:46:38.616Z,21.47
2018-07-15T20:49:07.250Z,21.47
2018-07-15T20:51:35.997Z,21.52
2018-07-15T20:54:04.815Z,21.56
2018-07-15T20:56:33.457Z,21.63
2018-07-15T20:59:02.864Z,21.69
2018-07-15T21:01:31.494Z,21.70
2018-07-15T21:04:03.461Z,21.73
2018-07-15T21:06:33.060Z,21.81
2018-07-15T21:09:01.756Z,21.89
2018-07-15T21:11:30.484Z,21.85
2018-07-15T21:13:59.596Z,21.80
2018-07-15T21:16:28.226Z,21.69
2018-07-15T21:18:57.118Z,21.53
2018-07-15T21:21:26.980Z,21.44
2018-07-15T21:24:10.446Z,16.25
2018-07-15T21:26:39.215Z,21.30
2018-07-15T21:29:08.177Z,21.30
2018-07-15T21:31:36.863Z,21.20
2018-07-15T21:34:05.605Z,21.23
2018-07-15T21:36:34.303Z,21.21
2018-07-15T21:39:03.080Z,21.13
2018-07-15T21:41:31.782Z,21.15
2018-07-15T21:44:00.504Z,21.29
2018-07-15T21:46:29.099Z,21.37
2018-07-15T21:48:57.840Z,21.51
2018-07-15T21:51:33.539Z,21.60
2018-07-15T21:54:02.735Z,21.59
2018-07-15T21:56:31.407Z,21.50
2018-07-15T21:59:00.365Z,21.49
2018-07-15T22:01:40.225Z,21.47
2018-07-15T22:04:09.655Z,21.53
2018-07-15T22:06:49.392Z,21.48
2018-07-15T22:09:29.566Z,21.48
2018-07-15T22:11:59.895Z,21.49
2018-07-15T22:14:28.615Z,21.56
2018-07-15T22:16:57.328Z,21.60
2018-07-15T22:19:25.991Z,21.65
2018-07-15T22:21:54.716Z,21.72
2018-07-15T22:24:23.431Z,21.73
2018-07-15T22:26:52.057Z,21.73
2018-07-15T22:29:20.711Z,21.65
2018-07-15T22:31:49.390Z,21.66
2018-07-15T22:34:18.059Z,21.64
2018-07-15T22:36:46.866Z,21.56
2018-07-15T22:39:15.502Z,21.55
2018-07-15T22:41:44.184Z,21.56
2018-07-15T22:44:12.834Z,21.57
2018-07-15T22:46:41.573Z,21.63
2018-07-15T22:49:10.222Z,21.74
2018-07-15T22:51:38.879Z,21.78
2018-07-15T22:54:07.532Z,21.90
2018-07-15T22:56:36.305Z,21.89
2018-07-15T22:59:05.544Z,21.72
2018-07-15T23:01:34.316Z,21.55
2018-07-15T23:04:02.951Z,21.41
2018-07-15T23:06:31.687Z,21.38
2018-07-15T23:09:00.362Z,21.32
2018-07-15T23:11:29.016Z,21.28
2018-07-15T23:13:57.662Z,21.26
2018-07-15T23:16:26.306Z,21.21
2018-07-15T23:18:54.988Z,21.23
2018-07-15T23:21:23.645Z,21.23
2018-07-15T23:23:52.300Z,21.29
2018-07-15T23:26:21.028Z,21.35
2018-07-15T23:28:49.736Z,21.38
2018-07-15T23:31:18.393Z,21.30
2018-07-15T23:33:47.064Z,21.33
2018-07-15T23:36:15.736Z,21.29
2018-07-15T23:38:44.416Z,21.27
2018-07-15T23:41:13.087Z,21.31
2018-07-15T23:43:41.762Z,21.38
2018-07-15T23:46:10.447Z,21.36
2018-07-15T23:48:39.108Z,21.33
2018-07-15T23:51:07.767Z,21.32
2018-07-15T23:53:36.421Z,21.27
2018-07-15T23:56:05.080Z,21.16
2018-07-15T23:58:33.785Z,21.11
